Weather History for Lexington, NE

Change the Weather History Date:

Friday, November 1, 2013

  Actual Average Record
Temperature  
Mean Temperature 45 °F -  
Max Temperature 59 °F 53 °F 73 °F (2008)
Min Temperature 32 °F 30 °F 14 °F (2002)
Degree Days  
Heating Degree Days 20    
Moisture  
Dew Point 32 °F    
Average Humidity 64    
Maximum Humidity 87    
Minimum Humidity 31    
Precipitation  
Precipitation 0.00 in - - ()
Sea Level Pressure  
Sea Level Pressure 29.96 in    
Wind  
Wind Speed 12 mph (NW)    
Max Wind Speed 26 mph    
Max Gust Speed 36 mph    
Visibility 10 miles    
Events      
Averages and records for this station are not official NWS values.
T = Trace of Precipitation, MM = Missing Value Source: NWS Daily Summary

Daily Weather History Graph

Daily Weather History Graph

Search for Another Location

Airport:

Trip Planner

Search our weather history database for the weather conditions in past years. The results will help you decide how hot, cold, wet, or windy it might be!

Date:

Astronomy

Nov. 01, 2013 Rise Set
Actual Time 8:09 AM CDT 6:34 PM CDT
Civil Twilight 7:41 AM CDT 7:03 PM CDT
Nautical Twilight 7:09 AM CDT 7:35 PM CDT
Astronomical Twilight 6:37 AM CDT 8:07 PM CDT
Moon 6:03 AM CDT 5:29 PM CDT
Length of Visible Light 11h 21m
Length of Day
10h 25m
Waning Crescent, 4% of the Moon is Illuminated
Nov 1
Waning Crescent
Nov 3
New
Nov 9
First Quarter
Nov 17
Full
Nov 25
Last Quarter

Hourly Weather History & Observations

Time (CDT) Temp. Windchill Dew Point Humidity Pressure Visibility Wind Dir Wind Speed Gust Speed Precip Events Conditions
12:15 AM 36.5 °F 31.8 °F 31.6 °F 83% 29.71 in 10.0 mi West 5.8 mph - N/A   Scattered Clouds
1:15 AM 33.8 °F 28.6 °F 30.4 °F 87% 29.73 in 10.0 mi WNW 5.8 mph - N/A   Clear
4:15 AM 36.9 °F 31.4 °F 33.4 °F 87% 29.78 in 10.0 mi WNW 6.9 mph - N/A   Mostly Cloudy
4:55 AM 37.8 °F 31.8 °F 33.8 °F 86% 29.79 in 10.0 mi WNW 8.1 mph - N/A   Mostly Cloudy
5:15 AM 37.0 °F 31.6 °F 33.1 °F 86% 29.79 in 10.0 mi WNW 6.9 mph - N/A   Scattered Clouds
5:35 AM 36.7 °F 31.2 °F 33.3 °F 87% 29.80 in 10.0 mi West 6.9 mph - N/A   Mostly Cloudy
5:55 AM 37.8 °F 31.8 °F 33.8 °F 86% 29.81 in 10.0 mi WNW 8.1 mph - N/A   Scattered Clouds
6:15 AM 40.1 °F 36.1 °F 35.8 °F 85% 29.82 in 10.0 mi WNW 5.8 mph - N/A   Mostly Cloudy
6:35 AM 41.9 °F 36.9 °F 37.0 °F 83% 29.83 in 10.0 mi WNW 8.1 mph - N/A   Overcast
6:55 AM 43.0 °F 37.2 °F 37.0 °F 80% 29.84 in 10.0 mi WNW 10.4 mph - N/A   Overcast
7:15 AM 42.6 °F 36.3 °F 36.5 °F 79% 29.85 in 10.0 mi NW 11.5 mph - N/A   Scattered Clouds
7:35 AM 41.9 °F 34.6 °F 36.5 °F 81% 29.85 in 10.0 mi NW 13.8 mph - N/A   Scattered Clouds
7:55 AM 43.0 °F 35.7 °F 37.4 °F 81% 29.86 in 10.0 mi NW 15.0 mph - N/A   Scattered Clouds
8:15 AM 43.2 °F 35.6 °F 37.4 °F 80% 29.87 in 10.0 mi NW 16.1 mph 21.9 mph N/A   Clear
8:35 AM 42.8 °F 35.8 °F 37.4 °F 81% 29.88 in 10.0 mi NNW 13.8 mph - N/A   Clear
8:55 AM 43.0 °F 35.7 °F 37.6 °F 81% 29.90 in 10.0 mi NW 15.0 mph 20.7 mph N/A   Clear
9:15 AM 44.1 °F 37.1 °F 38.3 °F 80% 29.91 in 10.0 mi NW 15.0 mph - N/A   Clear
9:35 AM 44.8 °F 37.1 °F 38.3 °F 78% 29.92 in 10.0 mi NW 18.4 mph 21.9 mph N/A   Clear
9:55 AM 45.7 °F 38.3 °F 38.5 °F 76% 29.93 in 10.0 mi NW 18.4 mph 23.0 mph N/A   Clear
10:15 AM 47.3 °F - 38.5 °F 71% 29.94 in 10.0 mi NW 20.7 mph 27.6 mph N/A   Clear
10:35 AM 48.4 °F - 39.0 °F 70% 29.95 in 10.0 mi NW 16.1 mph 25.3 mph N/A   Clear
10:55 AM 50.5 °F - 38.3 °F 63% 29.95 in 10.0 mi NNW 16.1 mph 25.3 mph N/A   Clear
11:15 AM 51.6 °F - 36.7 °F 57% 29.95 in 10.0 mi NW 18.4 mph 27.6 mph N/A   Clear
11:35 AM 53.1 °F - 37.0 °F 55% 29.96 in 10.0 mi NW 21.9 mph 27.6 mph N/A   Clear
11:55 AM 52.2 °F - 36.9 °F 56% 29.96 in 10.0 mi WNW 20.7 mph 25.3 mph N/A   Mostly Cloudy
12:15 PM 54.5 °F - 35.8 °F 49% 29.95 in 10.0 mi NW 16.1 mph 26.5 mph N/A   Scattered Clouds
12:35 PM 54.7 °F - 34.7 °F 47% 29.95 in 10.0 mi NW 17.3 mph 26.5 mph N/A   Scattered Clouds
12:55 PM 57.4 °F - 34.3 °F 42% 29.96 in 10.0 mi NW 19.6 mph 33.4 mph N/A   Scattered Clouds
1:15 PM 56.5 °F - 34.0 °F 43% 29.95 in 10.0 mi NW 18.4 mph 27.6 mph N/A   Mostly Cloudy
1:35 PM 56.3 °F - 32.5 °F 41% 29.95 in 10.0 mi NNW 25.3 mph 32.2 mph N/A   Mostly Cloudy
1:55 PM 57.6 °F - 32.4 °F 39% 29.95 in 10.0 mi NW 23.0 mph 31.1 mph N/A   Scattered Clouds
2:15 PM 57.6 °F - 30.4 °F 36% 29.95 in 10.0 mi NW 26.5 mph 32.2 mph N/A   Scattered Clouds
2:35 PM 57.9 °F - 29.1 °F 33% 29.94 in 10.0 mi NNW 24.2 mph 35.7 mph N/A   Clear
2:55 PM 58.1 °F - 27.9 °F 32% 29.94 in 10.0 mi NW 21.9 mph 35.7 mph N/A   Clear
3:15 PM 58.6 °F - 28.2 °F 31% 29.94 in 10.0 mi NW 25.3 mph 32.2 mph N/A   Mostly Cloudy
4:55 PM 55.0 °F - 27.0 °F 34% 29.98 in 10.0 mi NNW 23.0 mph 33.4 mph N/A   Mostly Cloudy
5:15 PM 53.6 °F - 28.8 °F 39% 29.99 in 10.0 mi NNW 24.2 mph 32.2 mph N/A   Overcast
5:35 PM 53.6 °F - 30.0 °F 41% 30.00 in 10.0 mi NW 23.0 mph 31.1 mph N/A   Mostly Cloudy
5:55 PM 51.4 °F - 30.6 °F 45% 30.00 in 10.0 mi NW 16.1 mph - N/A   Mostly Cloudy
6:15 PM 51.1 °F - 29.3 °F 43% 30.01 in 10.0 mi NNW 18.4 mph 24.2 mph N/A   Mostly Cloudy
6:35 PM 51.1 °F - 26.6 °F 39% 30.03 in 10.0 mi NNW 23.0 mph 35.7 mph N/A   Scattered Clouds
6:55 PM 49.1 °F - 27.9 °F 44% 30.04 in 10.0 mi NNW 15.0 mph 21.9 mph N/A   Clear
7:15 PM 47.3 °F - 28.4 °F 48% 30.05 in 10.0 mi NNW 15.0 mph - N/A   Clear
7:35 PM 45.9 °F 40.4 °F 28.9 °F 52% 30.06 in 10.0 mi NNW 11.5 mph - N/A   Clear
7:55 PM 44.8 °F 39.4 °F 29.3 °F 55% 30.07 in 10.0 mi NNW 10.4 mph - N/A   Clear
8:15 PM 43.9 °F 37.5 °F 29.3 °F 57% 30.08 in 10.0 mi North 12.7 mph - N/A   Clear
8:35 PM 43.5 °F 38.3 °F 29.3 °F 57% 30.08 in 10.0 mi NW 9.2 mph - N/A   Clear
8:55 PM 39.9 °F 33.9 °F 29.3 °F 66% 30.10 in 10.0 mi NW 9.2 mph - N/A   Clear
9:15 PM 37.2 °F 31.9 °F 28.9 °F 72% 30.10 in 10.0 mi NW 6.9 mph - N/A   Clear
9:35 PM 36.0 °F 31.1 °F 28.4 °F 74% 30.11 in 10.0 mi NW 5.8 mph - N/A   Clear
9:55 PM 34.5 °F 28.6 °F 27.9 °F 77% 30.11 in 10.0 mi NW 6.9 mph - N/A   Clear
10:15 PM 34.2 °F 27.5 °F 28.2 °F 79% 30.11 in 10.0 mi WNW 8.1 mph - N/A   Clear
10:35 PM 33.4 °F 26.6 °F 27.9 °F 80% 30.12 in 10.0 mi WNW 8.1 mph - N/A   Clear
10:55 PM 33.1 °F 26.1 °F 27.9 °F 81% 30.13 in 10.0 mi WNW 8.1 mph - N/A   Clear
11:15 PM 32.2 °F 25.0 °F 27.3 °F 82% 30.13 in 10.0 mi WNW 8.1 mph - N/A   Clear
11:35 PM 32.4 °F 25.3 °F 27.7 °F 83% 30.13 in 10.0 mi WNW 8.1 mph - N/A   Clear
11:55 PM 33.8 °F 26.4 °F 27.7 °F 78% 30.13 in 10.0 mi WNW 9.2 mph - N/A   Clear